Time;durP1;ratioP1;P1;durP2;ratioP2;P2;SDS_P1;SDS_P2;PMS_P1;PMS_P2;Temp;Humidity;BMP_temperature;BMP_pressure;BME280_temperature;BME280_humidity;BME280_pressure;Samples;Min_cycle;Max_cycle;Signal;HPM_P1;HPM_P2
2023/06/08 00:01:28;;;;;;;8.80;4.35;;;17.00;99.90;;;;;;5052150;28;20025;-47
2023/06/08 00:03:54;;;;;;;9.43;4.13;;;17.00;99.90;;;;;;5051843;28;20059;-47
2023/06/08 00:06:22;;;;;;;5.95;4.18;;;17.00;99.90;;;;;;5052277;28;20078;-48
2023/06/08 00:08:49;;;;;;;10.07;4.50;;;17.00;99.90;;;;;;5034789;28;20036;-48
2023/06/08 00:11:15;;;;;;;7.13;4.30;;;17.00;99.90;;;;;;5052021;28;20033;-47
2023/06/08 00:13:41;;;;;;;7.88;4.07;;;17.00;99.90;;;;;;5051842;28;20036;-49
2023/06/08 00:16:06;;;;;;;10.70;4.50;;;17.00;99.90;;;;;;5051955;28;20135;-47
2023/06/08 00:18:32;;;;;;;9.45;4.45;;;17.10;99.90;;;;;;5052098;28;20397;-48
2023/06/08 00:20:59;;;;;;;9.45;4.20;;;17.00;99.90;;;;;;5052097;28;20058;-50
2023/06/08 00:23:25;;;;;;;6.28;3.80;;;17.10;99.90;;;;;;5051993;28;20052;-49
2023/06/08 00:25:51;;;;;;;11.30;4.63;;;17.10;99.90;;;;;;5051796;28;20036;-48
2023/06/08 00:28:18;;;;;;;6.25;3.75;;;17.10;99.90;;;;;;5051841;28;20025;-49
2023/06/08 00:30:44;;;;;;;8.27;3.92;;;17.10;99.90;;;;;;5051614;28;20391;-48
2023/06/08 00:33:11;;;;;;;9.13;4.03;;;17.10;99.90;;;;;;5051969;28;20021;-49
2023/06/08 00:35:37;;;;;;;8.35;4.40;;;17.10;99.90;;;;;;5051534;28;20039;-49
2023/06/08 00:38:04;;;;;;;8.40;4.28;;;17.00;99.90;;;;;;5051882;28;20021;-49
2023/06/08 00:40:30;;;;;;;7.72;3.75;;;17.00;99.90;;;;;;5033578;28;20017;-51
2023/06/08 00:42:56;;;;;;;8.07;4.45;;;17.00;99.90;;;;;;5033657;28;20064;-47
2023/06/08 00:45:21;;;;;;;9.40;4.15;;;17.00;99.90;;;;;;5033539;28;20047;-52
2023/06/08 00:47:48;;;;;;;10.60;4.90;;;17.00;99.90;;;;;;5033883;28;20421;-50
2023/06/08 00:50:16;;;;;;;8.25;3.83;;;17.00;99.90;;;;;;5051269;28;20032;-49
2023/06/08 00:52:44;;;;;;;8.90;4.13;;;17.10;99.90;;;;;;5033612;28;20488;-47
2023/06/08 00:55:11;;;;;;;7.88;4.10;;;17.00;99.90;;;;;;5051432;28;20074;-47
2023/06/08 00:57:38;;;;;;;10.48;4.28;;;17.00;99.90;;;;;;5033190;28;20033;-51
2023/06/08 01:00:05;;;;;;;11.55;5.13;;;17.00;99.90;;;;;;5016722;28;20025;-49
2023/06/08 01:02:31;;;;;;;8.00;4.53;;;17.10;99.90;;;;;;5051322;28;20481;-50
2023/06/08 01:05:02;;;;;;;11.02;4.22;;;17.00;99.90;;;;;;5051296;28;20102;-49
2023/06/08 01:08:01;;;;;;;12.02;4.72;;;17.00;99.90;;;;;;5050976;28;20102;-48
2023/06/08 01:10:37;;;;;;;8.57;4.03;;;17.00;99.90;;;;;;5050892;28;20044;-50
2023/06/08 01:13:13;;;;;;;8.85;4.25;;;17.00;99.90;;;;;;5050881;28;20029;-52
2023/06/08 01:15:46;;;;;;;10.48;4.68;;;17.00;99.90;;;;;;5050174;28;20439;-49
2023/06/08 01:18:17;;;;;;;7.63;4.25;;;17.00;99.90;;;;;;5051126;28;20056;-48
2023/06/08 01:21:11;;;;;;;10.45;4.18;;;17.00;99.90;;;;;;5050896;28;20033;-49
2023/06/08 01:24:02;;;;;;;8.90;3.97;;;17.00;99.90;;;;;;5051116;28;20047;-48
2023/06/08 01:26:31;;;;;;;9.93;4.38;;;16.90;99.90;;;;;;5050894;28;20043;-48
2023/06/08 01:28:56;;;;;;;;;;;17.00;99.90;;;;;;5051673;28;20558;-48
2023/06/08 01:31:22;;;;;;;8.25;3.80;;;17.00;99.90;;;;;;5050885;28;19908;-48
2023/06/08 01:33:49;;;;;;;7.82;3.97;;;17.00;99.90;;;;;;5033221;28;20029;-48
2023/06/08 01:36:26;;;;;;;7.25;4.03;;;16.90;99.90;;;;;;5050907;28;20107;-48
2023/06/08 01:39:09;;;;;;;8.57;3.80;;;17.00;99.90;;;;;;5050914;28;20025;-48
2023/06/08 01:41:41;;;;;;;8.15;3.70;;;17.00;99.90;;;;;;5032553;28;20116;-48
2023/06/08 01:44:10;;;;;;;8.52;4.22;;;16.90;99.90;;;;;;5050838;28;20033;-48
2023/06/08 01:46:36;;;;;;;8.38;3.92;;;16.90;99.90;;;;;;5032809;28;20048;-49
2023/06/08 01:49:05;;;;;;;9.50;3.95;;;16.90;99.90;;;;;;5032771;28;20029;-49
2023/06/08 01:51:32;;;;;;;8.20;4.25;;;16.90;99.90;;;;;;5050358;28;20029;-48
2023/06/08 01:54:02;;;;;;;10.15;4.38;;;16.90;99.90;;;;;;5050518;28;20040;-50
2023/06/08 01:56:31;;;;;;;9.13;4.28;;;16.90;99.90;;;;;;5032345;28;20044;-47
2023/06/08 01:58:57;;;;;;;9.53;4.03;;;16.90;99.90;;;;;;5032731;28;20025;-48
2023/06/08 02:01:22;;;;;;;12.15;4.15;;;16.90;99.90;;;;;;5032413;28;21020;-49
2023/06/08 02:03:48;;;;;;;6.75;3.92;;;16.90;99.90;;;;;;5032563;28;20040;-50
2023/06/08 02:06:14;;;;;;;10.48;3.67;;;16.90;99.90;;;;;;5050298;28;20035;-48
2023/06/08 02:08:40;;;;;;;9.52;4.07;;;16.90;99.90;;;;;;5032562;28;20029;-49
2023/06/08 02:11:06;;;;;;;8.25;4.10;;;16.90;99.90;;;;;;5050119;28;20071;-49
2023/06/08 02:13:34;;;;;;;9.20;5.32;;;16.90;99.90;;;;;;5050240;28;20078;-48
2023/06/08 02:16:01;;;;;;;6.03;3.22;;;16.90;99.90;;;;;;5032301;28;20033;-49
2023/06/08 02:18:26;;;;;;;9.10;4.03;;;16.90;99.90;;;;;;5050460;28;20029;-47
2023/06/08 02:20:52;;;;;;;6.70;3.17;;;16.80;99.90;;;;;;5050027;28;20031;-50
2023/06/08 02:23:18;;;;;;;10.48;4.10;;;16.80;99.90;;;;;;5050208;28;20104;-48
2023/06/08 02:25:45;;;;;;;8.73;4.63;;;16.80;99.90;;;;;;5033340;28;20473;-48
2023/06/08 02:28:10;;;;;;;10.20;4.25;;;16.80;99.90;;;;;;5054285;28;20029;-47
2023/06/08 02:30:36;;;;;;;10.00;4.05;;;16.80;99.90;;;;;;5035873;28;20037;-48
2023/06/08 02:33:02;;;;;;;8.80;4.07;;;16.80;99.90;;;;;;5036131;28;20033;-49
2023/06/08 02:35:27;;;;;;;10.85;4.35;;;16.70;99.90;;;;;;5053818;28;20024;-48
2023/06/08 02:37:54;;;;;;;10.20;4.40;;;16.70;99.90;;;;;;5036387;28;20553;-47
2023/06/08 02:40:21;;;;;;;8.10;4.45;;;16.70;99.90;;;;;;5053944;28;20622;-49
2023/06/08 02:42:46;;;;;;;10.98;4.13;;;16.60;99.90;;;;;;5035916;28;20025;-47
2023/06/08 02:45:15;;;;;;;6.13;3.80;;;16.60;99.90;;;;;;5036467;28;20445;-46
2023/06/08 02:47:41;;;;;;;9.90;3.85;;;16.60;99.90;;;;;;5035934;28;20183;-51
2023/06/08 02:50:07;;;;;;;8.35;4.28;;;16.50;99.90;;;;;;5035799;28;20036;-47
2023/06/08 02:52:34;;;;;;;7.50;3.80;;;16.50;99.90;;;;;;5035605;28;20029;-47
2023/06/08 02:55:00;;;;;;;6.72;3.65;;;16.50;99.90;;;;;;5035694;28;20324;-47
2023/06/08 02:57:26;;;;;;;11.93;4.65;;;16.50;99.90;;;;;;5035511;28;20119;-47
2023/06/08 02:59:57;;;;;;;8.65;3.97;;;16.40;99.90;;;;;;5035811;28;20083;-47
2023/06/08 03:02:24;;;;;;;9.77;4.55;;;16.30;99.90;;;;;;5035374;28;20555;-48
2023/06/08 03:04:53;;;;;;;10.57;4.53;;;16.30;99.90;;;;;;5035667;28;20029;-49
2023/06/08 03:07:19;;;;;;;9.80;4.43;;;16.20;99.90;;;;;;5035337;28;20127;-49
2023/06/08 03:09:52;;;;;;;7.35;3.88;;;16.20;99.90;;;;;;5035466;28;20036;-47
2023/06/08 03:12:21;;;;;;;10.93;4.10;;;16.10;99.90;;;;;;5035364;28;20035;-48
2023/06/08 03:14:48;;;;;;;10.85;4.22;;;16.10;99.90;;;;;;5053583;28;20393;-48
2023/06/08 03:17:17;;;;;;;;;;;16.00;99.90;;;;;;5035979;28;20025;-49
2023/06/08 03:19:46;;;;;;;8.30;4.07;;;16.10;99.90;;;;;;5035262;28;19908;-48
2023/06/08 03:22:19;;;;;;;10.07;4.47;;;16.00;99.90;;;;;;5035002;28;20082;-50
2023/06/08 03:24:58;;;;;;;10.25;4.75;;;15.90;99.90;;;;;;5035284;28;20436;-50
2023/06/08 03:27:25;;;;;;;6.97;3.80;;;15.90;99.90;;;;;;5034946;28;20033;-48
2023/06/08 03:29:53;;;;;;;10.57;4.70;;;15.80;99.90;;;;;;5035308;28;20127;-47
2023/06/08 03:32:21;;;;;;;10.73;3.92;;;15.80;99.90;;;;;;5034799;28;20052;-47
2023/06/08 03:34:48;;;;;;;11.90;4.10;;;15.80;99.90;;;;;;5052963;28;20080;-47
2023/06/08 03:37:15;;;;;;;10.27;4.30;;;15.80;99.90;;;;;;5034037;28;20025;-50
2023/06/08 03:39:42;;;;;;;7.20;4.07;;;15.70;99.90;;;;;;5034856;28;20056;-47
2023/06/08 03:42:08;;;;;;;8.57;4.43;;;15.70;99.90;;;;;;5034662;28;20545;-48
2023/06/08 03:44:38;;;;;;;7.88;3.80;;;15.70;99.90;;;;;;5034865;28;20033;-47
2023/06/08 03:47:04;;;;;;;12.90;3.85;;;15.70;99.90;;;;;;5052631;28;20444;-47
2023/06/08 03:49:33;;;;;;;8.93;3.63;;;15.60;99.90;;;;;;5034889;28;20025;-49
2023/06/08 03:52:01;;;;;;;8.88;4.20;;;15.60;99.90;;;;;;5034497;28;20041;-48
2023/06/08 03:54:26;;;;;;;8.60;3.95;;;15.60;99.90;;;;;;5034575;28;20028;-47
2023/06/08 03:56:52;;;;;;;9.60;4.22;;;15.60;99.90;;;;;;5034450;28;20025;-48
2023/06/08 03:59:18;;;;;;;9.85;4.45;;;15.60;99.90;;;;;;5034545;28;20490;-47
2023/06/08 04:01:45;;;;;;;10.18;4.50;;;15.60;99.90;;;;;;5034252;28;20025;-47
2023/06/08 04:04:13;;;;;;;8.25;3.95;;;15.60;99.90;;;;;;5034643;28;20401;-47
2023/06/08 04:06:40;;;;;;;11.02;4.43;;;15.60;99.90;;;;;;5034391;28;20036;-47
2023/06/08 04:09:06;;;;;;;8.40;4.15;;;15.60;99.90;;;;;;5034367;28;20122;-47
2023/06/08 04:11:33;;;;;;;11.60;4.40;;;15.50;99.90;;;;;;5034025;28;20375;-47
2023/06/08 04:14:00;;;;;;;11.23;4.45;;;15.50;99.90;;;;;;5034198;28;20036;-47
2023/06/08 04:16:26;;;;;;;8.52;4.57;;;15.50;99.90;;;;;;5034192;28;20025;-50
2023/06/08 04:18:54;;;;;;;10.00;4.43;;;15.50;99.90;;;;;;5034549;28;20500;-47
2023/06/08 04:21:25;;;;;;;;;;;15.50;99.90;;;;;;5034705;28;20052;-47
2023/06/08 04:23:53;;;;;;;8.30;4.07;;;15.40;99.90;;;;;;5052127;28;20034;-47
2023/06/08 04:26:24;;;;;;;7.65;4.30;;;15.50;99.90;;;;;;5034079;28;20028;-49
2023/06/08 04:28:52;;;;;;;9.27;4.28;;;15.50;99.90;;;;;;5034477;28;20394;-48
2023/06/08 04:31:21;;;;;;;7.40;4.22;;;15.40;99.90;;;;;;5033896;28;20052;-47
2023/06/08 04:33:48;;;;;;;10.70;5.43;;;15.50;99.90;;;;;;5034126;28;20090;-48
2023/06/08 04:36:14;;;;;;;11.20;4.47;;;15.50;99.90;;;;;;5034034;28;20025;-51
2023/06/08 04:38:41;;;;;;;8.00;4.25;;;15.40;99.90;;;;;;5051926;28;20044;-47
2023/06/08 04:41:08;;;;;;;11.23;4.32;;;15.40;99.90;;;;;;5033778;28;20029;-47
2023/06/08 04:43:34;;;;;;;9.43;4.60;;;15.40;99.90;;;;;;5034015;28;20504;-47
2023/06/08 04:46:07;;;;;;;8.68;4.38;;;15.40;99.90;;;;;;5033710;28;20028;-47
2023/06/08 04:48:33;;;;;;;7.85;4.30;;;15.30;99.90;;;;;;5051659;28;20078;-47
2023/06/08 04:51:04;;;;;;;7.68;4.43;;;15.40;99.90;;;;;;5033523;28;20522;-49
2023/06/08 04:53:34;;;;;;;11.07;4.40;;;15.30;99.90;;;;;;5051393;28;20036;-46
2023/06/08 04:56:01;;;;;;;9.10;4.47;;;15.30;99.90;;;;;;5033408;28;20055;-48
2023/06/08 04:58:28;;;;;;;11.05;4.57;;;15.40;99.90;;;;;;5033829;28;20025;-50
2023/06/08 05:00:56;;;;;;;10.50;4.63;;;15.40;99.90;;;;;;5033245;28;20049;-49
2023/06/08 05:03:23;;;;;;;9.40;4.63;;;15.40;99.90;;;;;;5033446;28;20120;-50
2023/06/08 05:05:50;;;;;;;10.65;4.65;;;15.40;99.90;;;;;;5051447;28;20497;-52
2023/06/08 05:08:16;;;;;;;11.00;5.13;;;15.50;99.90;;;;;;5051188;28;20024;-47
2023/06/08 05:10:42;;;;;;;9.77;4.95;;;15.50;99.90;;;;;;5051134;28;20025;-50
2023/06/08 05:13:08;;;;;;;9.95;4.30;;;15.50;99.90;;;;;;5050939;28;20043;-49
2023/06/08 05:15:33;;;;;;;13.10;4.93;;;15.50;99.90;;;;;;5051071;28;20086;-49
2023/06/08 05:17:59;;;;;;;13.02;4.80;;;15.50;99.90;;;;;;5051300;28;20079;-48
2023/06/08 05:20:26;;;;;;;12.65;5.43;;;15.50;99.90;;;;;;5050816;28;20049;-49
2023/06/08 05:22:53;;;;;;;12.40;5.38;;;15.50;99.90;;;;;;5050950;28;20024;-48
2023/06/08 05:25:19;;;;;;;9.63;4.68;;;15.50;99.90;;;;;;5050821;28;20024;-49
2023/06/08 05:27:45;;;;;;;11.82;4.90;;;15.60;99.90;;;;;;5050954;28;20032;-49
2023/06/08 05:30:11;;;;;;;9.77;4.60;;;15.70;99.90;;;;;;5051108;28;20025;-48
2023/06/08 05:32:37;;;;;;;9.45;5.90;;;15.70;99.90;;;;;;5050756;28;20108;-48
2023/06/08 05:35:03;;;;;;;9.18;5.22;;;15.70;99.90;;;;;;5050617;28;20039;-47
2023/06/08 05:37:29;;;;;;;9.55;5.20;;;15.70;99.90;;;;;;5032619;28;20079;-48
2023/06/08 05:39:55;;;;;;;12.70;5.28;;;15.80;99.90;;;;;;5051018;28;20059;-48
2023/06/08 05:42:21;;;;;;;9.55;5.03;;;15.90;99.90;;;;;;5050582;28;20501;-50
2023/06/08 05:44:49;;;;;;;12.65;5.00;;;15.90;99.90;;;;;;5050624;28;20029;-47
2023/06/08 05:47:15;;;;;;;15.35;5.47;;;16.00;99.90;;;;;;5050560;28;20121;-47
2023/06/08 05:49:41;;;;;;;9.93;4.90;;;16.00;99.90;;;;;;5050560;28;20111;-47
2023/06/08 05:52:07;;;;;;;9.68;5.05;;;16.00;99.90;;;;;;5050380;28;20029;-51
2023/06/08 05:54:32;;;;;;;13.40;5.00;;;16.10;99.90;;;;;;5050605;28;20052;-48
2023/06/08 05:56:58;;;;;;;10.35;5.15;;;16.10;99.90;;;;;;5050442;28;20052;-50
2023/06/08 05:59:24;;;;;;;12.00;5.70;;;16.20;99.90;;;;;;5050553;28;20029;-49
2023/06/08 06:01:50;;;;;;;10.65;4.80;;;16.30;99.90;;;;;;5055949;28;20028;-49
2023/06/08 06:04:16;;;;;;;11.85;4.90;;;16.40;99.90;;;;;;5057524;28;20040;-49
2023/06/08 06:06:42;;;;;;;11.13;5.30;;;16.50;99.90;;;;;;5057047;28;20063;-49
2023/06/08 06:09:08;;;;;;;9.80;4.50;;;16.40;99.90;;;;;;5057154;28;20029;-50
2023/06/08 06:11:34;;;;;;;13.27;5.28;;;16.50;99.90;;;;;;5056822;28;20029;-49
2023/06/08 06:14:01;;;;;;;11.50;5.28;;;16.50;99.90;;;;;;5056835;28;20489;-49
2023/06/08 06:16:27;;;;;;;11.13;5.88;;;16.60;99.90;;;;;;5056846;28;20039;-48
2023/06/08 06:18:53;;;;;;;10.07;5.07;;;16.60;99.90;;;;;;5056919;28;20051;-49
2023/06/08 06:21:19;;;;;;;9.95;5.00;;;16.60;99.90;;;;;;5056826;28;20047;-50
2023/06/08 06:23:45;;;;;;;12.68;5.68;;;16.70;99.90;;;;;;5056940;28;20082;-48
2023/06/08 06:26:11;;;;;;;16.65;7.72;;;16.60;99.90;;;;;;5056790;28;20032;-49
2023/06/08 06:28:38;;;;;;;11.50;5.28;;;16.70;99.90;;;;;;5056905;28;20033;-48
2023/06/08 06:31:05;;;;;;;10.57;5.25;;;16.70;99.90;;;;;;5057170;28;20082;-46
2023/06/08 06:33:30;;;;;;;11.25;5.50;;;16.70;99.90;;;;;;5056807;28;20142;-49
2023/06/08 06:35:56;;;;;;;12.02;5.53;;;16.80;99.90;;;;;;5056581;28;20143;-47
2023/06/08 06:38:22;;;;;;;12.73;5.72;;;16.90;99.90;;;;;;5057215;28;20028;-48
2023/06/08 06:40:50;;;;;;;11.35;5.35;;;17.10;99.90;;;;;;5056631;28;20509;-48
2023/06/08 06:43:17;;;;;;;13.57;5.47;;;17.20;99.90;;;;;;5056882;28;20032;-49
2023/06/08 06:45:51;;;;;;;11.05;5.32;;;17.20;99.90;;;;;;5038704;28;20559;-47
2023/06/08 06:48:20;;;;;;;10.50;5.35;;;17.30;99.90;;;;;;5056867;28;20119;-48
2023/06/08 06:50:47;;;;;;;8.38;5.40;;;17.40;99.90;;;;;;5056809;28;20028;-47
2023/06/08 06:53:13;;;;;;;9.73;5.18;;;17.40;99.90;;;;;;5056987;28;20047;-50
2023/06/08 06:55:40;;;;;;;12.27;5.18;;;17.40;99.90;;;;;;5056524;28;20499;-50
2023/06/08 06:58:06;;;;;;;10.63;5.03;;;17.50;99.90;;;;;;5056819;28;20359;-48
2023/06/08 07:00:37;;;;;;;10.13;4.80;;;17.60;99.90;;;;;;5056350;28;20021;-51
2023/06/08 07:03:04;;;;;;;9.27;4.65;;;17.60;99.90;;;;;;5056633;28;20033;-48
2023/06/08 07:05:30;;;;;;;10.57;5.30;;;17.70;99.90;;;;;;5056388;28;20496;-51
2023/06/08 07:07:55;;;;;;;9.25;4.97;;;17.80;99.90;;;;;;5056884;28;20119;-50
2023/06/08 07:10:21;;;;;;;9.05;4.35;;;17.90;99.90;;;;;;5056505;28;20048;-49
2023/06/08 07:12:47;;;;;;;11.68;5.70;;;18.00;99.90;;;;;;5053079;28;20418;-48
2023/06/08 07:15:13;;;;;;;11.82;5.18;;;18.10;99.90;;;;;;5053359;28;20025;-53
2023/06/08 07:17:40;;;;;;;10.43;4.82;;;18.10;99.90;;;;;;5053212;28;20037;-48
2023/06/08 07:20:06;;;;;;;8.20;4.20;;;18.20;99.90;;;;;;5053165;28;20118;-49
2023/06/08 07:22:32;;;;;;;10.02;4.95;;;18.20;99.90;;;;;;5053523;28;20029;-48
2023/06/08 07:24:58;;;;;;;8.90;4.57;;;18.20;99.90;;;;;;5053399;28;20401;-48
2023/06/08 07:27:24;;;;;;;9.30;4.72;;;18.10;99.90;;;;;;5053650;28;20079;-47
2023/06/08 07:29:51;;;;;;;8.68;4.88;;;18.10;99.90;;;;;;5053413;28;20040;-47
2023/06/08 07:32:17;;;;;;;8.50;4.53;;;18.00;99.90;;;;;;5053060;28;20115;-50
2023/06/08 07:34:43;;;;;;;11.38;4.85;;;18.00;99.90;;;;;;5053254;28;20112;-47
2023/06/08 07:37:08;;;;;;;10.40;5.20;;;18.00;99.90;;;;;;5053125;28;20481;-49
2023/06/08 07:39:34;;;;;;;9.07;5.07;;;18.10;99.90;;;;;;5053055;28;20537;-49
2023/06/08 07:42:02;;;;;;;12.32;5.95;;;18.00;99.90;;;;;;5052738;28;20048;-48
2023/06/08 07:44:28;;;;;;;10.35;4.93;;;18.10;99.90;;;;;;5052915;28;20061;-48
2023/06/08 07:46:53;;;;;;;7.40;4.70;;;18.00;99.90;;;;;;5052729;28;20454;-48
2023/06/08 07:49:19;;;;;;;10.52;5.13;;;18.10;99.90;;;;;;5053012;28;20040;-47
2023/06/08 07:51:45;;;;;;;12.35;4.88;;;18.00;99.90;;;;;;5052745;28;20084;-48
2023/06/08 07:54:11;;;;;;;12.07;5.63;;;18.00;99.90;;;;;;5052670;28;20036;-47
2023/06/08 07:56:36;;;;;;;12.20;5.10;;;18.00;99.90;;;;;;5052369;28;20060;-48
2023/06/08 07:59:02;;;;;;;10.80;4.80;;;18.10;99.90;;;;;;5052555;28;20033;-48
2023/06/08 08:01:28;;;;;;;12.07;5.63;;;18.00;99.90;;;;;;5052282;28;20060;-51
2023/06/08 08:03:53;;;;;;;11.73;5.30;;;18.00;99.90;;;;;;5052464;28;20345;-50
2023/06/08 08:06:19;;;;;;;9.52;5.25;;;18.20;99.90;;;;;;5052253;28;20029;-49
2023/06/08 08:08:45;;;;;;;11.85;5.25;;;18.20;99.90;;;;;;5052471;28;20032;-48
2023/06/08 08:11:11;;;;;;;10.95;5.18;;;18.40;99.90;;;;;;5034264;28;20025;-50
2023/06/08 08:13:37;;;;;;;14.98;7.38;;;18.60;99.90;;;;;;5052577;28;20380;-48
2023/06/08 08:16:03;;;;;;;9.20;4.90;;;19.00;99.90;;;;;;5051920;28;20029;-48
2023/06/08 08:18:29;;;;;;;9.32;5.38;;;19.10;99.90;;;;;;5052289;28;20507;-48
2023/06/08 08:20:55;;;;;;;10.23;6.07;;;19.30;99.90;;;;;;5051970;28;20376;-47
2023/06/08 08:23:20;;;;;;;9.85;5.38;;;19.50;99.90;;;;;;5052146;28;20024;-49
2023/06/08 08:25:46;;;;;;;8.35;4.65;;;19.70;99.90;;;;;;5051794;28;20417;-50
2023/06/08 08:28:13;;;;;;;8.27;4.63;;;19.90;99.90;;;;;;5052503;28;20363;-49
2023/06/08 08:30:39;;;;;;;11.70;5.72;;;20.00;99.90;;;;;;5051706;28;20489;-47
2023/06/08 08:33:04;;;;;;;14.13;6.40;;;20.10;99.90;;;;;;5051941;28;20032;-48
2023/06/08 08:35:31;;;;;;;9.80;5.28;;;20.20;99.90;;;;;;5051570;28;20028;-47
2023/06/08 08:37:57;;;;;;;14.40;5.35;;;20.30;99.90;;;;;;5051818;28;20040;-50
2023/06/08 08:40:23;;;;;;;10.95;5.28;;;20.40;99.90;;;;;;5051517;28;20119;-49
2023/06/08 08:43:09;;;;;;;10.35;5.43;;;20.50;99.90;;;;;;5051823;28;20371;-51
2023/06/08 08:45:36;;;;;;;8.40;4.90;;;20.60;99.90;;;;;;5051680;28;20029;-49
2023/06/08 08:48:02;;;;;;;10.25;5.10;;;20.70;99.90;;;;;;5051475;28;20481;-48
2023/06/08 08:50:34;;;;;;;9.57;4.93;;;20.80;99.90;;;;;;5051577;28;20368;-51
2023/06/08 08:53:00;;;;;;;7.75;4.50;;;21.00;99.90;;;;;;5052063;28;20063;-51
2023/06/08 08:55:33;;;;;;;9.82;5.35;;;21.10;99.90;;;;;;5051231;28;20036;-48
2023/06/08 08:58:00;;;;;;;9.13;4.72;;;21.30;99.90;;;;;;5051425;28;20095;-50
2023/06/08 09:00:27;;;;;;;9.32;4.63;;;21.50;99.90;;;;;;5051379;28;20036;-49
2023/06/08 09:02:53;;;;;;;8.27;3.83;;;21.60;99.90;;;;;;5051301;28;20474;-49
2023/06/08 09:05:19;;;;;;;9.55;4.70;;;21.60;99.90;;;;;;5051055;28;20637;-49
2023/06/08 09:07:45;;;;;;;9.18;4.72;;;21.70;99.90;;;;;;5051132;28;20072;-47
2023/06/08 09:10:25;;;;;;;8.88;4.47;;;21.80;99.90;;;;;;5051297;28;20029;-50
2023/06/08 09:12:53;;;;;;;8.68;4.55;;;21.90;99.90;;;;;;5051078;28;20044;-51
2023/06/08 09:15:31;;;;;;;8.10;4.47;;;21.90;99.90;;;;;;5050932;28;20123;-51
2023/06/08 09:18:02;;;;;;;8.10;4.35;;;21.90;99.90;;;;;;5051091;28;20099;-48
2023/06/08 09:20:33;;;;;;;9.88;4.43;;;21.90;99.90;;;;;;5050854;28;20438;-47
2023/06/08 09:23:24;;;;;;;7.10;4.38;;;22.00;99.90;;;;;;5033057;28;20180;-48
2023/06/08 09:25:53;;;;;;;9.13;4.53;;;21.90;99.90;;;;;;5050763;28;20044;-49
2023/06/08 09:28:28;;;;;;;8.00;3.97;;;21.90;99.90;;;;;;5050849;28;20029;-51
2023/06/08 09:30:57;;;;;;;7.18;4.65;;;22.00;99.90;;;;;;5050611;28;20551;-48
2023/06/08 09:33:26;;;;;;;8.75;4.82;;;22.00;99.90;;;;;;5051038;28;20036;-52
2023/06/08 09:35:58;;;;;;;9.75;4.43;;;22.00;99.90;;;;;;5050007;28;20458;-51
2023/06/08 09:38:26;;;;;;;10.40;5.57;;;22.20;99.90;;;;;;5050792;28;20401;-49
2023/06/08 09:41:14;;;;;;;10.57;4.78;;;22.20;99.90;;;;;;5050558;28;20033;-47
2023/06/08 09:43:43;;;;;;;7.43;4.90;;;22.30;99.90;;;;;;5050739;28;20029;-50
2023/06/08 09:46:16;;;;;;;10.10;4.68;;;22.20;99.90;;;;;;5050394;28;20440;-48
2023/06/08 09:48:56;;;;;;;6.30;4.35;;;22.30;99.90;;;;;;5050806;28;20124;-48
2023/06/08 09:51:23;;;;;;;8.77;4.78;;;22.40;99.90;;;;;;5050266;28;20032;-49
2023/06/08 09:53:57;;;;;;;9.88;4.78;;;22.50;99.90;;;;;;5050595;28;20029;-48
2023/06/08 09:56:26;;;;;;;8.30;5.00;;;22.60;99.90;;;;;;5050416;28;20032;-48
2023/06/08 09:58:54;;;;;;;8.80;4.70;;;22.70;99.90;;;;;;5050593;28;20029;-48
2023/06/08 10:01:40;;;;;;;6.95;4.32;;;22.80;99.90;;;;;;5050262;28;20031;-49
2023/06/08 10:04:40;;;;;;;9.40;4.70;;;22.90;99.90;;;;;;5050634;28;20390;-48
2023/06/08 10:07:14;;;;;;;8.80;4.82;;;22.90;99.90;;;;;;5050652;28;20029;-46
2023/06/08 10:09:44;;;;;;;8.30;4.13;;;22.90;99.90;;;;;;5050605;28;20033;-49
2023/06/08 10:12:11;;;;;;;8.63;4.95;;;23.00;99.90;;;;;;5050213;28;20025;-47
2023/06/08 10:14:37;;;;;;;7.22;4.57;;;23.10;99.90;;;;;;5050266;28;20029;-48
2023/06/08 10:17:03;;;;;;;9.35;4.30;;;23.20;99.90;;;;;;5050770;28;20025;-48
2023/06/08 10:19:32;;;;;;;9.38;4.72;;;23.20;99.90;;;;;;5050504;28;20405;-47
2023/06/08 10:21:59;;;;;;;8.43;4.75;;;23.30;99.80;;;;;;5050442;28;20361;-50
2023/06/08 10:24:27;;;;;;;8.90;5.03;;;23.30;99.40;;;;;;5050757;28;20036;-49
2023/06/08 10:27:17;;;;;;;8.63;4.60;;;23.30;99.20;;;;;;5050301;28;20037;-47
2023/06/08 10:29:54;;;;;;;10.45;5.22;;;23.40;99.90;;;;;;5050389;28;20066;-51
2023/06/08 10:32:20;;;;;;;7.75;4.47;;;23.50;99.30;;;;;;5050174;28;20397;-47
2023/06/08 10:34:46;;;;;;;7.93;4.70;;;23.50;98.60;;;;;;5050384;28;20029;-49
2023/06/08 10:37:28;;;;;;;8.75;4.80;;;23.60;98.80;;;;;;5049948;28;20029;-49
2023/06/08 10:39:56;;;;;;;8.02;4.85;;;23.60;98.90;;;;;;5050343;28;20036;-51
2023/06/08 10:42:22;;;;;;;9.60;5.10;;;23.70;98.60;;;;;;5049873;28;20509;-47
2023/06/08 10:44:56;;;;;;;7.60;5.13;;;23.90;99.00;;;;;;5050097;28;20052;-48
2023/06/08 10:47:22;;;;;;;7.60;4.47;;;23.80;98.10;;;;;;5052044;28;20037;-48
2023/06/08 10:49:56;;;;;;;6.70;4.78;;;23.90;98.40;;;;;;5053876;28;20086;-49
2023/06/08 10:52:23;;;;;;;10.27;5.10;;;24.00;98.10;;;;;;5053530;28;20041;-47
2023/06/08 10:54:58;;;;;;;8.18;4.28;;;24.00;98.20;;;;;;5053717;28;20516;-48
2023/06/08 10:57:35;;;;;;;9.13;5.18;;;24.10;99.00;;;;;;5053653;28;20102;-48
2023/06/08 11:00:01;;;;;;;10.40;5.00;;;24.20;97.90;;;;;;5053403;28;20028;-49
2023/06/08 11:02:29;;;;;;;8.20;4.28;;;24.30;97.20;;;;;;5053396;28;20508;-50
2023/06/08 11:04:56;;;;;;;;;;;24.40;97.40;;;;;;5054189;28;20035;-51
2023/06/08 11:07:25;;;;;;;8.18;4.70;;;24.40;98.10;;;;;;5053394;28;20353;-50
2023/06/08 11:09:51;;;;;;;7.05;3.88;;;24.40;97.40;;;;;;5053485;28;20032;-48
2023/06/08 11:12:19;;;;;;;9.10;4.90;;;24.50;97.70;;;;;;5053186;28;20033;-48
2023/06/08 11:14:45;;;;;;;7.28;5.18;;;24.50;96.60;;;;;;5053107;28;20033;-47
2023/06/08 11:17:11;;;;;;;8.20;4.40;;;24.50;96.20;;;;;;5053326;28;20063;-49
2023/06/08 11:19:36;;;;;;;7.43;4.15;;;24.60;96.80;;;;;;5053618;28;20061;-49
2023/06/08 11:22:03;;;;;;;6.47;4.50;;;24.70;96.50;;;;;;5053065;28;20108;-50
2023/06/08 11:24:28;;;;;;;6.95;4.40;;;24.80;97.00;;;;;;5053287;28;20053;-47
2023/06/08 11:27:01;;;;;;;8.70;4.53;;;24.80;96.60;;;;;;5053068;28;20468;-48
2023/06/08 11:29:27;;;;;;;7.90;4.35;;;24.90;96.50;;;;;;5053128;28;20378;-51
2023/06/08 11:31:54;;;;;;;8.20;4.60;;;25.00;95.40;;;;;;5052751;28;20043;-48
2023/06/08 11:34:21;;;;;;;8.68;4.57;;;24.90;94.90;;;;;;5052974;28;20025;-49
2023/06/08 11:36:49;;;;;;;7.78;4.63;;;24.90;95.40;;;;;;5053223;28;20151;-47
2023/06/08 11:39:15;;;;;;;6.82;4.60;;;24.90;97.30;;;;;;5052998;28;20111;-49
2023/06/08 11:41:46;;;;;;;10.90;6.18;;;25.00;94.90;;;;;;5052607;28;20029;-50
2023/06/08 11:44:13;;;;;;;8.85;5.07;;;25.10;95.50;;;;;;5052831;28;20060;-49
2023/06/08 11:46:39;;;;;;;9.38;4.90;;;25.20;94.60;;;;;;5052762;28;20036;-49
2023/06/08 11:49:10;;;;;;;12.02;7.30;;;25.20;94.50;;;;;;5052775;28;20033;-50
2023/06/08 11:51:47;;;;;;;6.97;4.53;;;25.20;94.60;;;;;;5052443;28;20044;-49
2023/06/08 11:54:14;;;;;;;10.27;6.22;;;25.30;94.40;;;;;;5052557;28;20057;-50
2023/06/08 11:56:41;;;;;;;7.65;4.68;;;25.30;94.40;;;;;;5052422;28;20029;-49
2023/06/08 11:59:07;;;;;;;8.73;4.68;;;25.30;94.20;;;;;;5051833;28;20029;-49
2023/06/08 12:01:33;;;;;;;7.57;4.82;;;25.40;94.50;;;;;;5052588;28;20029;-49
2023/06/08 12:03:59;;;;;;;7.38;4.63;;;25.40;94.60;;;;;;5052633;28;20029;-49
2023/06/08 12:06:26;;;;;;;7.60;5.10;;;25.50;94.10;;;;;;5052283;28;20033;-50
2023/06/08 12:08:56;;;;;;;7.20;5.13;;;25.50;93.70;;;;;;5052972;28;20055;-50
2023/06/08 12:11:22;;;;;;;7.32;4.13;;;25.60;93.40;;;;;;5052107;28;20052;-47
2023/06/08 12:13:48;;;;;;;8.38;5.30;;;25.60;94.70;;;;;;5051978;28;20060;-48
2023/06/08 12:16:14;;;;;;;9.07;5.10;;;25.70;93.80;;;;;;5052047;28;20094;-48
2023/06/08 12:18:42;;;;;;;6.68;4.30;;;25.70;93.60;;;;;;5052306;28;20033;-47
2023/06/08 12:21:10;;;;;;;7.93;4.82;;;25.70;92.90;;;;;;5052194;28;20028;-50
2023/06/08 12:23:36;;;;;;;6.75;4.47;;;25.70;93.00;;;;;;5052189;28;20040;-48
2023/06/08 12:26:02;;;;;;;5.97;4.82;;;25.80;93.40;;;;;;5051999;28;20055;-48
2023/06/08 12:28:28;;;;;;;5.40;3.80;;;25.90;92.80;;;;;;5051971;28;20043;-47
2023/06/08 12:30:54;;;;;;;18.08;11.63;;;25.90;93.00;;;;;;5051716;28;20517;-47
2023/06/08 12:33:21;;;;;;;6.57;4.47;;;26.00;92.90;;;;;;5051963;28;20040;-49
2023/06/08 12:35:51;;;;;;;5.97;4.28;;;26.00;93.50;;;;;;5051633;28;20029;-49
2023/06/08 12:38:20;;;;;;;7.22;4.18;;;26.00;92.90;;;;;;5051856;28;20051;-48
2023/06/08 12:40:51;;;;;;;7.28;4.72;;;26.00;92.80;;;;;;5051669;28;20149;-48
2023/06/08 12:43:21;;;;;;;6.53;4.85;;;26.10;93.30;;;;;;5051698;28;20094;-48
2023/06/08 12:45:47;;;;;;;7.57;4.88;;;26.30;92.30;;;;;;5051809;28;20367;-47
2023/06/08 12:48:13;;;;;;;7.90;4.18;;;26.50;92.80;;;;;;5051656;28;20497;-48